sensor_id;sensor_type;location;lat;lon;timestamp;temperature;humidity
47576;DHT22;33304;52.456;13.328;2022-08-25T00:02:07;21.10;53.30
47576;DHT22;33304;52.456;13.328;2022-08-25T00:04:35;21.10;53.30
47576;DHT22;33304;52.456;13.328;2022-08-25T00:07:04;21.10;53.30
47576;DHT22;33304;52.456;13.328;2022-08-25T00:09:33;21.00;54.30
47576;DHT22;33304;52.456;13.328;2022-08-25T00:12:02;20.90;55.00
47576;DHT22;33304;52.456;13.328;2022-08-25T00:14:33;20.80;55.80
47576;DHT22;33304;52.456;13.328;2022-08-25T00:17:02;20.90;55.70
47576;DHT22;33304;52.456;13.328;2022-08-25T00:19:31;20.90;55.80
47576;DHT22;33304;52.456;13.328;2022-08-25T00:22:00;21.00;55.70
47576;DHT22;33304;52.456;13.328;2022-08-25T00:24:28;21.00;55.00
47576;DHT22;33304;52.456;13.328;2022-08-25T00:26:57;21.00;55.30
47576;DHT22;33304;52.456;13.328;2022-08-25T00:29:27;21.00;54.90
47576;DHT22;33304;52.456;13.328;2022-08-25T00:31:57;20.90;55.30
47576;DHT22;33304;52.456;13.328;2022-08-25T00:34:27;21.00;54.80
47576;DHT22;33304;52.456;13.328;2022-08-25T00:36:55;20.90;55.20
47576;DHT22;33304;52.456;13.328;2022-08-25T00:39:23;20.80;55.70
47576;DHT22;33304;52.456;13.328;2022-08-25T00:41:52;20.70;56.80
47576;DHT22;33304;52.456;13.328;2022-08-25T00:44:20;20.60;58.10
47576;DHT22;33304;52.456;13.328;2022-08-25T00:46:50;20.60;60.00
47576;DHT22;33304;52.456;13.328;2022-08-25T00:49:23;20.50;60.80
47576;DHT22;33304;52.456;13.328;2022-08-25T00:51:56;20.60;61.50
47576;DHT22;33304;52.456;13.328;2022-08-25T00:54:28;20.60;61.40
47576;DHT22;33304;52.456;13.328;2022-08-25T00:56:58;20.50;62.00
47576;DHT22;33304;52.456;13.328;2022-08-25T00:59:26;20.50;62.60
47576;DHT22;33304;52.456;13.328;2022-08-25T01:01:55;20.40;64.00
47576;DHT22;33304;52.456;13.328;2022-08-25T01:04:25;20.50;64.00
47576;DHT22;33304;52.456;13.328;2022-08-25T01:06:52;20.50;63.20
47576;DHT22;33304;52.456;13.328;2022-08-25T01:09:20;20.60;63.70
47576;DHT22;33304;52.456;13.328;2022-08-25T01:11:48;20.50;62.20
47576;DHT22;33304;52.456;13.328;2022-08-25T01:14:17;20.50;63.40
47576;DHT22;33304;52.456;13.328;2022-08-25T01:16:45;20.40;64.00
47576;DHT22;33304;52.456;13.328;2022-08-25T01:19:14;20.30;64.70
47576;DHT22;33304;52.456;13.328;2022-08-25T01:21:45;20.40;66.00
47576;DHT22;33304;52.456;13.328;2022-08-25T01:24:19;20.40;65.10
47576;DHT22;33304;52.456;13.328;2022-08-25T01:26:48;20.40;65.40
47576;DHT22;33304;52.456;13.328;2022-08-25T01:29:15;20.30;66.40
47576;DHT22;33304;52.456;13.328;2022-08-25T01:31:53;20.30;68.20
47576;DHT22;33304;52.456;13.328;2022-08-25T01:34:24;20.30;67.40
47576;DHT22;33304;52.456;13.328;2022-08-25T01:36:53;20.30;68.40
47576;DHT22;33304;52.456;13.328;2022-08-25T01:39:21;20.20;70.40
47576;DHT22;33304;52.456;13.328;2022-08-25T01:42:08;20.20;73.10
47576;DHT22;33304;52.456;13.328;2022-08-25T01:44:41;20.20;74.90
47576;DHT22;33304;52.456;13.328;2022-08-25T01:47:10;20.10;74.80
47576;DHT22;33304;52.456;13.328;2022-08-25T01:49:37;20.10;75.60
47576;DHT22;33304;52.456;13.328;2022-08-25T01:52:10;20.10;76.80
47576;DHT22;33304;52.456;13.328;2022-08-25T01:54:40;20.10;77.00
47576;DHT22;33304;52.456;13.328;2022-08-25T01:57:07;20.10;78.70
47576;DHT22;33304;52.456;13.328;2022-08-25T01:59:35;20.10;80.20
47576;DHT22;33304;52.456;13.328;2022-08-25T02:02:02;20.00;80.90
47576;DHT22;33304;52.456;13.328;2022-08-25T02:04:29;20.10;81.60
47576;DHT22;33304;52.456;13.328;2022-08-25T02:06:57;20.20;80.10
47576;DHT22;33304;52.456;13.328;2022-08-25T02:09:26;20.10;80.00
47576;DHT22;33304;52.456;13.328;2022-08-25T02:11:54;20.10;80.30
47576;DHT22;33304;52.456;13.328;2022-08-25T02:14:22;20.10;81.40
47576;DHT22;33304;52.456;13.328;2022-08-25T02:16:51;20.10;81.50
47576;DHT22;33304;52.456;13.328;2022-08-25T02:19:20;20.10;81.50
47576;DHT22;33304;52.456;13.328;2022-08-25T02:21:47;20.00;82.30
47576;DHT22;33304;52.456;13.328;2022-08-25T02:24:15;20.00;83.00
47576;DHT22;33304;52.456;13.328;2022-08-25T02:26:44;20.00;83.30
47576;DHT22;33304;52.456;13.328;2022-08-25T02:29:11;20.00;83.30
47576;DHT22;33304;52.456;13.328;2022-08-25T02:31:39;20.00;83.80
47576;DHT22;33304;52.456;13.328;2022-08-25T02:34:07;20.00;83.40
47576;DHT22;33304;52.456;13.328;2022-08-25T02:36:35;20.00;84.40
47576;DHT22;33304;52.456;13.328;2022-08-25T02:39:03;20.00;85.30
47576;DHT22;33304;52.456;13.328;2022-08-25T02:41:31;20.00;84.50
47576;DHT22;33304;52.456;13.328;2022-08-25T02:44:02;20.00;85.40
47576;DHT22;33304;52.456;13.328;2022-08-25T02:46:29;20.00;85.40
47576;DHT22;33304;52.456;13.328;2022-08-25T02:48:57;20.20;83.60
47576;DHT22;33304;52.456;13.328;2022-08-25T02:51:25;20.10;83.30
47576;DHT22;33304;52.456;13.328;2022-08-25T02:53:55;20.10;83.50
47576;DHT22;33304;52.456;13.328;2022-08-25T02:56:22;20.20;83.70
47576;DHT22;33304;52.456;13.328;2022-08-25T02:58:51;20.20;81.00
47576;DHT22;33304;52.456;13.328;2022-08-25T03:01:20;20.10;81.40
47576;DHT22;33304;52.456;13.328;2022-08-25T03:03:48;20.10;82.10
47576;DHT22;33304;52.456;13.328;2022-08-25T03:06:18;20.00;82.70
47576;DHT22;33304;52.456;13.328;2022-08-25T03:08:47;20.00;83.00
47576;DHT22;33304;52.456;13.328;2022-08-25T03:11:15;20.00;84.20
47576;DHT22;33304;52.456;13.328;2022-08-25T03:13:43;19.90;85.30
47576;DHT22;33304;52.456;13.328;2022-08-25T03:16:11;19.90;89.00
47576;DHT22;33304;52.456;13.328;2022-08-25T03:18:40;19.80;90.10
47576;DHT22;33304;52.456;13.328;2022-08-25T03:21:09;19.80;90.80
47576;DHT22;33304;52.456;13.328;2022-08-25T03:23:36;19.80;91.90
47576;DHT22;33304;52.456;13.328;2022-08-25T03:26:04;19.80;92.50
47576;DHT22;33304;52.456;13.328;2022-08-25T03:28:49;19.80;92.50
47576;DHT22;33304;52.456;13.328;2022-08-25T03:31:16;19.70;92.40
47576;DHT22;33304;52.456;13.328;2022-08-25T03:33:45;19.70;92.90
47576;DHT22;33304;52.456;13.328;2022-08-25T03:36:12;19.70;94.30
47576;DHT22;33304;52.456;13.328;2022-08-25T03:38:40;19.60;95.90
47576;DHT22;33304;52.456;13.328;2022-08-25T03:41:12;19.60;97.80
47576;DHT22;33304;52.456;13.328;2022-08-25T03:43:41;19.60;99.10
47576;DHT22;33304;52.456;13.328;2022-08-25T03:46:14;19.60;99.20
47576;DHT22;33304;52.456;13.328;2022-08-25T03:48:41;19.60;99.80
47576;DHT22;33304;52.456;13.328;2022-08-25T03:51:10;19.50;99.90
47576;DHT22;33304;52.456;13.328;2022-08-25T03:53:37;19.50;99.90
47576;DHT22;33304;52.456;13.328;2022-08-25T03:56:04;19.50;99.90
47576;DHT22;33304;52.456;13.328;2022-08-25T03:58:31;19.50;99.90
47576;DHT22;33304;52.456;13.328;2022-08-25T04:00:59;19.50;99.90
47576;DHT22;33304;52.456;13.328;2022-08-25T04:03:26;19.60;99.90
47576;DHT22;33304;52.456;13.328;2022-08-25T04:05:53;19.60;99.90
47576;DHT22;33304;52.456;13.328;2022-08-25T04:08:21;19.60;99.90
47576;DHT22;33304;52.456;13.328;2022-08-25T04:10:49;19.60;99.90
47576;DHT22;33304;52.456;13.328;2022-08-25T04:13:16;19.40;99.90
47576;DHT22;33304;52.456;13.328;2022-08-25T04:15:44;19.50;99.90
47576;DHT22;33304;52.456;13.328;2022-08-25T04:18:11;19.50;99.90
47576;DHT22;33304;52.456;13.328;2022-08-25T04:20:39;19.50;99.90
47576;DHT22;33304;52.456;13.328;2022-08-25T04:23:06;19.50;99.90
47576;DHT22;33304;52.456;13.328;2022-08-25T04:25:39;19.50;99.90
47576;DHT22;33304;52.456;13.328;2022-08-25T04:28:07;19.50;99.90
47576;DHT22;33304;52.456;13.328;2022-08-25T04:30:34;19.50;99.90
47576;DHT22;33304;52.456;13.328;2022-08-25T04:33:02;19.50;99.90
47576;DHT22;33304;52.456;13.328;2022-08-25T04:35:29;19.50;99.90
47576;DHT22;33304;52.456;13.328;2022-08-25T04:37:56;19.50;99.90
47576;DHT22;33304;52.456;13.328;2022-08-25T04:40:24;19.50;99.90
47576;DHT22;33304;52.456;13.328;2022-08-25T04:42:52;19.50;99.90
47576;DHT22;33304;52.456;13.328;2022-08-25T04:45:19;19.60;99.90
47576;DHT22;33304;52.456;13.328;2022-08-25T04:47:47;19.60;99.90
47576;DHT22;33304;52.456;13.328;2022-08-25T04:50:14;19.60;99.90
47576;DHT22;33304;52.456;13.328;2022-08-25T04:52:41;19.60;99.90
47576;DHT22;33304;52.456;13.328;2022-08-25T04:55:08;19.70;99.90
47576;DHT22;33304;52.456;13.328;2022-08-25T04:57:35;19.80;99.90
47576;DHT22;33304;52.456;13.328;2022-08-25T05:00:05;19.70;99.90
47576;DHT22;33304;52.456;13.328;2022-08-25T05:02:33;19.90;99.90
47576;DHT22;33304;52.456;13.328;2022-08-25T05:05:00;20.20;94.10
47576;DHT22;33304;52.456;13.328;2022-08-25T05:07:29;20.20;89.00
47576;DHT22;33304;52.456;13.328;2022-08-25T05:09:56;20.20;85.90
47576;DHT22;33304;52.456;13.328;2022-08-25T05:12:23;20.10;86.70
47576;DHT22;33304;52.456;13.328;2022-08-25T05:14:51;20.00;87.90
47576;DHT22;33304;52.456;13.328;2022-08-25T05:17:20;20.10;87.80
47576;DHT22;33304;52.456;13.328;2022-08-25T05:19:47;20.20;85.50
47576;DHT22;33304;52.456;13.328;2022-08-25T05:22:14;20.30;82.70
47576;DHT22;33304;52.456;13.328;2022-08-25T05:24:41;20.30;79.40
47576;DHT22;33304;52.456;13.328;2022-08-25T05:27:08;20.30;77.90
47576;DHT22;33304;52.456;13.328;2022-08-25T05:29:35;20.40;76.20
47576;DHT22;33304;52.456;13.328;2022-08-25T05:32:03;20.30;75.10
47576;DHT22;33304;52.456;13.328;2022-08-25T05:34:31;20.30;75.70
47576;DHT22;33304;52.456;13.328;2022-08-25T05:36:58;20.30;75.00
47576;DHT22;33304;52.456;13.328;2022-08-25T05:39:28;20.40;75.10
47576;DHT22;33304;52.456;13.328;2022-08-25T05:41:58;20.40;75.10
47576;DHT22;33304;52.456;13.328;2022-08-25T05:44:26;20.40;75.10
47576;DHT22;33304;52.456;13.328;2022-08-25T05:46:53;20.40;73.80
47576;DHT22;33304;52.456;13.328;2022-08-25T05:49:20;20.50;72.90
47576;DHT22;33304;52.456;13.328;2022-08-25T05:51:48;20.50;72.90
47576;DHT22;33304;52.456;13.328;2022-08-25T05:54:16;20.60;72.20
47576;DHT22;33304;52.456;13.328;2022-08-25T05:56:43;20.60;69.00
47576;DHT22;33304;52.456;13.328;2022-08-25T05:59:11;20.70;68.30
47576;DHT22;33304;52.456;13.328;2022-08-25T06:01:38;20.70;67.50
47576;DHT22;33304;52.456;13.328;2022-08-25T06:04:23;20.70;67.20
47576;DHT22;33304;52.456;13.328;2022-08-25T06:06:51;20.70;67.50
47576;DHT22;33304;52.456;13.328;2022-08-25T06:09:20;20.70;67.10
47576;DHT22;33304;52.456;13.328;2022-08-25T06:11:47;20.70;67.50
47576;DHT22;33304;52.456;13.328;2022-08-25T06:14:15;20.70;67.50
47576;DHT22;33304;52.456;13.328;2022-08-25T06:16:42;20.80;66.20
47576;DHT22;33304;52.456;13.328;2022-08-25T06:19:09;20.90;64.40
47576;DHT22;33304;52.456;13.328;2022-08-25T06:21:37;21.00;64.50
47576;DHT22;33304;52.456;13.328;2022-08-25T06:24:07;21.00;62.50
47576;DHT22;33304;52.456;13.328;2022-08-25T06:26:35;21.00;61.70
47576;DHT22;33304;52.456;13.328;2022-08-25T06:29:03;20.90;62.80
47576;DHT22;33304;52.456;13.328;2022-08-25T06:31:30;20.90;63.70
47576;DHT22;33304;52.456;13.328;2022-08-25T06:33:57;21.00;62.80
47576;DHT22;33304;52.456;13.328;2022-08-25T06:36:24;21.10;62.00
47576;DHT22;33304;52.456;13.328;2022-08-25T06:38:52;21.10;61.40
47576;DHT22;33304;52.456;13.328;2022-08-25T06:41:20;21.10;61.50
47576;DHT22;33304;52.456;13.328;2022-08-25T06:43:48;21.10;61.40
47576;DHT22;33304;52.456;13.328;2022-08-25T06:46:18;21.10;61.40
47576;DHT22;33304;52.456;13.328;2022-08-25T06:48:46;21.10;61.40
47576;DHT22;33304;52.456;13.328;2022-08-25T06:51:16;21.20;60.30
47576;DHT22;33304;52.456;13.328;2022-08-25T06:53:45;21.30;58.60
47576;DHT22;33304;52.456;13.328;2022-08-25T06:56:14;21.40;57.70
47576;DHT22;33304;52.456;13.328;2022-08-25T06:58:43;21.40;57.60
47576;DHT22;33304;52.456;13.328;2022-08-25T07:01:12;21.40;57.60
47576;DHT22;33304;52.456;13.328;2022-08-25T07:03:39;21.40;57.20
47576;DHT22;33304;52.456;13.328;2022-08-25T07:06:07;21.30;57.50
47576;DHT22;33304;52.456;13.328;2022-08-25T07:08:34;21.40;57.30
47576;DHT22;33304;52.456;13.328;2022-08-25T07:11:04;21.40;57.30
47576;DHT22;33304;52.456;13.328;2022-08-25T07:13:31;21.50;57.10
47576;DHT22;33304;52.456;13.328;2022-08-25T07:16:00;21.50;56.50
47576;DHT22;33304;52.456;13.328;2022-08-25T07:18:28;21.50;57.60
47576;DHT22;33304;52.456;13.328;2022-08-25T07:20:55;21.50;57.20
47576;DHT22;33304;52.456;13.328;2022-08-25T07:23:24;21.60;56.30
47576;DHT22;33304;52.456;13.328;2022-08-25T07:25:52;21.80;55.20
47576;DHT22;33304;52.456;13.328;2022-08-25T07:28:20;21.70;54.70
47576;DHT22;33304;52.456;13.328;2022-08-25T07:30:48;21.80;54.00
47576;DHT22;33304;52.456;13.328;2022-08-25T07:33:17;21.70;54.70
47576;DHT22;33304;52.456;13.328;2022-08-25T07:35:44;21.80;54.50
47576;DHT22;33304;52.456;13.328;2022-08-25T07:38:10;21.90;54.00
47576;DHT22;33304;52.456;13.328;2022-08-25T07:40:37;21.90;54.70
47576;DHT22;33304;52.456;13.328;2022-08-25T07:43:06;21.80;53.90
47576;DHT22;33304;52.456;13.328;2022-08-25T07:45:35;21.60;54.80
47576;DHT22;33304;52.456;13.328;2022-08-25T07:48:06;21.70;55.20
47576;DHT22;33304;52.456;13.328;2022-08-25T07:50:37;21.70;55.60
47576;DHT22;33304;52.456;13.328;2022-08-25T07:53:05;21.90;54.00
47576;DHT22;33304;52.456;13.328;2022-08-25T07:55:32;22.10;54.20
47576;DHT22;33304;52.456;13.328;2022-08-25T07:58:02;22.30;52.60
47576;DHT22;33304;52.456;13.328;2022-08-25T08:00:30;22.20;52.00
47576;DHT22;33304;52.456;13.328;2022-08-25T08:02:59;22.40;51.20
47576;DHT22;33304;52.456;13.328;2022-08-25T08:05:27;22.40;50.30
47576;DHT22;33304;52.456;13.328;2022-08-25T08:07:56;22.60;49.40
47576;DHT22;33304;52.456;13.328;2022-08-25T08:10:24;22.70;48.20
47576;DHT22;33304;52.456;13.328;2022-08-25T08:12:52;22.80;47.60
47576;DHT22;33304;52.456;13.328;2022-08-25T08:15:19;22.90;46.80
47576;DHT22;33304;52.456;13.328;2022-08-25T08:17:46;22.90;46.70
47576;DHT22;33304;52.456;13.328;2022-08-25T08:20:14;22.80;47.50
47576;DHT22;33304;52.456;13.328;2022-08-25T08:22:42;23.00;47.30
47576;DHT22;33304;52.456;13.328;2022-08-25T08:25:11;23.10;46.40
47576;DHT22;33304;52.456;13.328;2022-08-25T08:27:38;23.20;46.00
47576;DHT22;33304;52.456;13.328;2022-08-25T08:30:08;23.00;46.50
47576;DHT22;33304;52.456;13.328;2022-08-25T08:32:36;23.00;46.40
47576;DHT22;33304;52.456;13.328;2022-08-25T08:35:04;23.00;46.40
47576;DHT22;33304;52.456;13.328;2022-08-25T08:37:32;23.10;46.70
47576;DHT22;33304;52.456;13.328;2022-08-25T08:39:59;23.30;46.20
47576;DHT22;33304;52.456;13.328;2022-08-25T08:42:46;23.50;44.00
47576;DHT22;33304;52.456;13.328;2022-08-25T08:45:31;23.70;44.00
47576;DHT22;33304;52.456;13.328;2022-08-25T08:48:21;23.70;43.60
47576;DHT22;33304;52.456;13.328;2022-08-25T08:50:57;23.60;43.90
47576;DHT22;33304;52.456;13.328;2022-08-25T08:53:31;23.60;43.30
47576;DHT22;33304;52.456;13.328;2022-08-25T08:56:06;23.70;43.10
47576;DHT22;33304;52.456;13.328;2022-08-25T08:58:39;23.80;42.20
47576;DHT22;33304;52.456;13.328;2022-08-25T09:01:10;24.10;42.00
47576;DHT22;33304;52.456;13.328;2022-08-25T09:03:39;24.20;40.70
47576;DHT22;33304;52.456;13.328;2022-08-25T09:06:10;24.20;40.70
47576;DHT22;33304;52.456;13.328;2022-08-25T09:08:39;24.40;40.50
47576;DHT22;33304;52.456;13.328;2022-08-25T09:11:14;24.80;37.20
47576;DHT22;33304;52.456;13.328;2022-08-25T09:13:56;25.00;35.90
47576;DHT22;33304;52.456;13.328;2022-08-25T09:16:32;25.30;35.10
47576;DHT22;33304;52.456;13.328;2022-08-25T09:19:44;25.70;33.60
47576;DHT22;33304;52.456;13.328;2022-08-25T09:22:22;25.70;33.60
47576;DHT22;33304;52.456;13.328;2022-08-25T09:24:59;25.40;32.40
47576;DHT22;33304;52.456;13.328;2022-08-25T09:27:35;25.20;33.30
47576;DHT22;33304;52.456;13.328;2022-08-25T09:30:09;24.90;33.90
47576;DHT22;33304;52.456;13.328;2022-08-25T09:32:39;24.70;34.90
47576;DHT22;33304;52.456;13.328;2022-08-25T09:35:14;24.70;35.70
47576;DHT22;33304;52.456;13.328;2022-08-25T09:37:54;24.70;36.00
47576;DHT22;33304;52.456;13.328;2022-08-25T09:40:22;24.70;35.00
47576;DHT22;33304;52.456;13.328;2022-08-25T09:42:52;24.80;35.30
47576;DHT22;33304;52.456;13.328;2022-08-25T09:45:32;24.90;35.00
47576;DHT22;33304;52.456;13.328;2022-08-25T09:48:00;25.10;34.70
47576;DHT22;33304;52.456;13.328;2022-08-25T09:50:31;25.10;33.20
47576;DHT22;33304;52.456;13.328;2022-08-25T09:53:12;25.00;33.10
47576;DHT22;33304;52.456;13.328;2022-08-25T09:55:40;25.00;33.10
47576;DHT22;33304;52.456;13.328;2022-08-25T09:58:16;24.90;33.10
47576;DHT22;33304;52.456;13.328;2022-08-25T10:01:11;25.10;34.50
47576;DHT22;33304;52.456;13.328;2022-08-25T10:03:53;25.50;33.50
47576;DHT22;33304;52.456;13.328;2022-08-25T10:06:22;25.90;32.40
47576;DHT22;33304;52.456;13.328;2022-08-25T10:08:56;26.50;29.90
47576;DHT22;33304;52.456;13.328;2022-08-25T10:11:34;26.80;28.40
47576;DHT22;33304;52.456;13.328;2022-08-25T10:14:06;27.10;26.40
47576;DHT22;33304;52.456;13.328;2022-08-25T10:16:35;27.20;25.70
47576;DHT22;33304;52.456;13.328;2022-08-25T10:19:06;26.90;26.10
47576;DHT22;33304;52.456;13.328;2022-08-25T10:21:36;26.80;26.50
47576;DHT22;33304;52.456;13.328;2022-08-25T10:24:04;26.20;27.70
47576;DHT22;33304;52.456;13.328;2022-08-25T10:26:40;26.30;28.10
47576;DHT22;33304;52.456;13.328;2022-08-25T10:29:20;26.40;27.50
47576;DHT22;33304;52.456;13.328;2022-08-25T10:31:55;26.50;27.80
47576;DHT22;33304;52.456;13.328;2022-08-25T10:34:36;26.20;27.90
47576;DHT22;33304;52.456;13.328;2022-08-25T10:37:14;26.20;27.80
47576;DHT22;33304;52.456;13.328;2022-08-25T10:39:45;26.10;28.30
47576;DHT22;33304;52.456;13.328;2022-08-25T10:42:26;26.20;28.40
47576;DHT22;33304;52.456;13.328;2022-08-25T10:45:16;26.20;28.00
47576;DHT22;33304;52.456;13.328;2022-08-25T10:48:27;25.90;28.40
47576;DHT22;33304;52.456;13.328;2022-08-25T10:51:01;25.80;28.90
47576;DHT22;33304;52.456;13.328;2022-08-25T10:53:40;26.10;28.90
47576;DHT22;33304;52.456;13.328;2022-08-25T10:56:13;26.50;27.50
47576;DHT22;33304;52.456;13.328;2022-08-25T10:59:12;27.00;25.60
47576;DHT22;33304;52.456;13.328;2022-08-25T11:02:07;27.60;24.20
47576;DHT22;33304;52.456;13.328;2022-08-25T11:04:42;27.30;24.10
47576;DHT22;33304;52.456;13.328;2022-08-25T11:07:15;27.10;25.00
47576;DHT22;33304;52.456;13.328;2022-08-25T11:09:48;27.00;24.20
47576;DHT22;33304;52.456;13.328;2022-08-25T11:12:23;27.00;25.40
47576;DHT22;33304;52.456;13.328;2022-08-25T11:14:55;27.50;24.20
47576;DHT22;33304;52.456;13.328;2022-08-25T11:17:25;28.20;23.10
47576;DHT22;33304;52.456;13.328;2022-08-25T11:19:57;28.20;22.20
47576;DHT22;33304;52.456;13.328;2022-08-25T11:22:31;28.20;21.80
47576;DHT22;33304;52.456;13.328;2022-08-25T11:25:05;28.30;22.00
47576;DHT22;33304;52.456;13.328;2022-08-25T11:27:40;28.50;21.50
47576;DHT22;33304;52.456;13.328;2022-08-25T11:30:11;28.70;19.90
47576;DHT22;33304;52.456;13.328;2022-08-25T11:32:40;28.90;20.00
47576;DHT22;33304;52.456;13.328;2022-08-25T11:35:13;28.80;19.40
47576;DHT22;33304;52.456;13.328;2022-08-25T11:37:55;28.70;19.60
47576;DHT22;33304;52.456;13.328;2022-08-25T11:40:37;28.80;18.80
47576;DHT22;33304;52.456;13.328;2022-08-25T11:43:20;28.70;19.20
47576;DHT22;33304;52.456;13.328;2022-08-25T11:46:03;28.80;19.20
47576;DHT22;33304;52.456;13.328;2022-08-25T11:48:39;29.10;18.90
47576;DHT22;33304;52.456;13.328;2022-08-25T11:51:11;29.70;16.60
47576;DHT22;33304;52.456;13.328;2022-08-25T11:54:15;29.60;17.10
47576;DHT22;33304;52.456;13.328;2022-08-25T11:56:52;29.90;15.50
47576;DHT22;33304;52.456;13.328;2022-08-25T12:02:29;29.90;15.50
47576;DHT22;33304;52.456;13.328;2022-08-25T12:04:57;30.10;15.10
47576;DHT22;33304;52.456;13.328;2022-08-25T12:07:28;30.20;15.70
47576;DHT22;33304;52.456;13.328;2022-08-25T12:10:18;30.10;15.50
47576;DHT22;33304;52.456;13.328;2022-08-25T12:15:58;30.00;15.50
47576;DHT22;33304;52.456;13.328;2022-08-25T12:18:46;29.60;15.30
47576;DHT22;33304;52.456;13.328;2022-08-25T12:21:30;29.50;15.30
47576;DHT22;33304;52.456;13.328;2022-08-25T12:24:10;29.60;15.30
47576;DHT22;33304;52.456;13.328;2022-08-25T12:26:47;29.20;16.60
47576;DHT22;33304;52.456;13.328;2022-08-25T12:29:28;29.10;17.00
47576;DHT22;33304;52.456;13.328;2022-08-25T12:32:04;29.30;16.60
47576;DHT22;33304;52.456;13.328;2022-08-25T12:34:51;30.00;15.50
47576;DHT22;33304;52.456;13.328;2022-08-25T12:37:21;30.80;13.50
47576;DHT22;33304;52.456;13.328;2022-08-25T12:39:57;31.10;12.00
47576;DHT22;33304;52.456;13.328;2022-08-25T12:42:30;31.50;11.10
47576;DHT22;33304;52.456;13.328;2022-08-25T12:45:12;31.50;11.10
47576;DHT22;33304;52.456;13.328;2022-08-25T12:47:41;31.10;11.90
47576;DHT22;33304;52.456;13.328;2022-08-25T12:50:30;30.60;12.70
47576;DHT22;33304;52.456;13.328;2022-08-25T12:53:09;29.90;13.50
47576;DHT22;33304;52.456;13.328;2022-08-25T12:55:40;29.50;15.20
47576;DHT22;33304;52.456;13.328;2022-08-25T12:58:10;29.70;14.90
47576;DHT22;33304;52.456;13.328;2022-08-25T13:00:50;29.70;14.90
47576;DHT22;33304;52.456;13.328;2022-08-25T13:03:39;29.70;14.70
47576;DHT22;33304;52.456;13.328;2022-08-25T13:06:26;29.80;15.40
47576;DHT22;33304;52.456;13.328;2022-08-25T13:09:21;31.30;10.30
47576;DHT22;33304;52.456;13.328;2022-08-25T13:12:03;32.50;8.60
47576;DHT22;33304;52.456;13.328;2022-08-25T13:14:37;33.70;5.10
47576;DHT22;33304;52.456;13.328;2022-08-25T13:17:06;33.90;4.50
47576;DHT22;33304;52.456;13.328;2022-08-25T13:19:34;34.80;2.90
47576;DHT22;33304;52.456;13.328;2022-08-25T13:22:12;35.20;1.00
47576;DHT22;33304;52.456;13.328;2022-08-25T13:24:43;35.60;1.10
47576;DHT22;33304;52.456;13.328;2022-08-25T13:27:20;35.60;1.00
47576;DHT22;33304;52.456;13.328;2022-08-25T13:29:51;34.70;1.60
47576;DHT22;33304;52.456;13.328;2022-08-25T13:32:25;34.60;1.90
47576;DHT22;33304;52.456;13.328;2022-08-25T13:35:07;33.50;3.30
47576;DHT22;33304;52.456;13.328;2022-08-25T13:37:36;32.50;5.50
47576;DHT22;33304;52.456;13.328;2022-08-25T13:40:11;31.80;6.00
47576;DHT22;33304;52.456;13.328;2022-08-25T13:42:44;32.70;6.20
47576;DHT22;33304;52.456;13.328;2022-08-25T13:45:14;34.00;2.40
47576;DHT22;33304;52.456;13.328;2022-08-25T13:47:43;34.20;1.70
47576;DHT22;33304;52.456;13.328;2022-08-25T13:50:16;34.20;1.10
47576;DHT22;33304;52.456;13.328;2022-08-25T13:52:46;35.20;1.00
47576;DHT22;33304;52.456;13.328;2022-08-25T13:55:20;35.90;1.00
47576;DHT22;33304;52.456;13.328;2022-08-25T13:57:49;35.80;1.00
47576;DHT22;33304;52.456;13.328;2022-08-25T14:00:30;35.70;1.00
47576;DHT22;33304;52.456;13.328;2022-08-25T14:02:58;35.50;1.00
47576;DHT22;33304;52.456;13.328;2022-08-25T14:05:32;35.80;1.00
47576;DHT22;33304;52.456;13.328;2022-08-25T14:08:01;37.00;1.00
47576;DHT22;33304;52.456;13.328;2022-08-25T14:10:36;37.30;1.00
47576;DHT22;33304;52.456;13.328;2022-08-25T14:13:12;37.50;1.00
47576;DHT22;33304;52.456;13.328;2022-08-25T14:15:41;36.90;1.00
47576;DHT22;33304;52.456;13.328;2022-08-25T14:18:14;36.00;1.00
47576;DHT22;33304;52.456;13.328;2022-08-25T14:20:47;35.30;1.00
47576;DHT22;33304;52.456;13.328;2022-08-25T14:23:18;33.80;1.00
47576;DHT22;33304;52.456;13.328;2022-08-25T14:25:46;33.10;2.90
47576;DHT22;33304;52.456;13.328;2022-08-25T14:28:17;33.00;3.70
47576;DHT22;33304;52.456;13.328;2022-08-25T14:30:47;33.10;4.10
47576;DHT22;33304;52.456;13.328;2022-08-25T14:33:16;34.10;1.70
47576;DHT22;33304;52.456;13.328;2022-08-25T14:35:46;35.20;1.00
47576;DHT22;33304;52.456;13.328;2022-08-25T14:38:14;35.80;1.00
47576;DHT22;33304;52.456;13.328;2022-08-25T14:40:42;36.70;1.00
47576;DHT22;33304;52.456;13.328;2022-08-25T14:43:09;37.80;1.00
47576;DHT22;33304;52.456;13.328;2022-08-25T14:45:41;38.50;1.00
47576;DHT22;33304;52.456;13.328;2022-08-25T14:48:11;38.20;1.00
47576;DHT22;33304;52.456;13.328;2022-08-25T14:50:40;37.20;1.00
47576;DHT22;33304;52.456;13.328;2022-08-25T14:53:08;36.90;1.00
47576;DHT22;33304;52.456;13.328;2022-08-25T14:55:36;36.90;1.00
47576;DHT22;33304;52.456;13.328;2022-08-25T14:58:03;36.50;1.00
47576;DHT22;33304;52.456;13.328;2022-08-25T15:00:31;36.20;1.00
47576;DHT22;33304;52.456;13.328;2022-08-25T15:02:59;36.20;1.00
47576;DHT22;33304;52.456;13.328;2022-08-25T15:05:26;35.60;1.00
47576;DHT22;33304;52.456;13.328;2022-08-25T15:07:54;34.60;1.00
47576;DHT22;33304;52.456;13.328;2022-08-25T15:10:39;33.60;1.00
47576;DHT22;33304;52.456;13.328;2022-08-25T15:13:06;33.20;1.40
47576;DHT22;33304;52.456;13.328;2022-08-25T15:15:38;32.80;2.80
47576;DHT22;33304;52.456;13.328;2022-08-25T15:18:07;32.50;3.60
47576;DHT22;33304;52.456;13.328;2022-08-25T15:20:35;32.20;4.70
47576;DHT22;33304;52.456;13.328;2022-08-25T15:23:02;32.00;6.10
47576;DHT22;33304;52.456;13.328;2022-08-25T15:25:29;31.80;6.10
47576;DHT22;33304;52.456;13.328;2022-08-25T15:28:05;31.30;5.80
47576;DHT22;33304;52.456;13.328;2022-08-25T15:30:34;30.90;7.10
47576;DHT22;33304;52.456;13.328;2022-08-25T15:33:01;30.60;7.70
47576;DHT22;33304;52.456;13.328;2022-08-25T15:35:29;30.40;7.90
47576;DHT22;33304;52.456;13.328;2022-08-25T15:37:57;30.10;8.90
47576;DHT22;33304;52.456;13.328;2022-08-25T15:40:24;30.00;9.00
47576;DHT22;33304;52.456;13.328;2022-08-25T15:42:51;29.70;9.80
47576;DHT22;33304;52.456;13.328;2022-08-25T15:45:18;29.70;10.00
47576;DHT22;33304;52.456;13.328;2022-08-25T15:47:45;29.70;10.00
47576;DHT22;33304;52.456;13.328;2022-08-25T15:50:15;29.70;9.70